sensor_id;sensor_type;location;lat;lon;timestamp;temperature;humidity
34698;DHT22;61391;50.922;6.928;2023-05-02T00:02:18;14.00;99.90
34698;DHT22;61391;50.922;6.928;2023-05-02T00:04:44;14.00;99.90
34698;DHT22;61391;50.922;6.928;2023-05-02T00:07:10;14.10;99.90
34698;DHT22;61391;50.922;6.928;2023-05-02T00:09:36;14.10;99.90
34698;DHT22;61391;50.922;6.928;2023-05-02T00:12:01;14.00;99.90
34698;DHT22;61391;50.922;6.928;2023-05-02T00:14:27;13.80;99.90
34698;DHT22;61391;50.922;6.928;2023-05-02T00:16:53;13.70;99.90
34698;DHT22;61391;50.922;6.928;2023-05-02T00:19:19;13.50;99.90
34698;DHT22;61391;50.922;6.928;2023-05-02T00:21:47;13.50;99.90
34698;DHT22;61391;50.922;6.928;2023-05-02T00:24:13;13.60;99.90
34698;DHT22;61391;50.922;6.928;2023-05-02T00:26:39;13.40;99.90
34698;DHT22;61391;50.922;6.928;2023-05-02T00:29:04;13.40;99.90
34698;DHT22;61391;50.922;6.928;2023-05-02T00:31:30;13.40;99.90
34698;DHT22;61391;50.922;6.928;2023-05-02T00:33:56;13.40;99.90
34698;DHT22;61391;50.922;6.928;2023-05-02T00:36:21;13.40;99.90
34698;DHT22;61391;50.922;6.928;2023-05-02T00:38:47;13.40;99.90
34698;DHT22;61391;50.922;6.928;2023-05-02T00:41:12;13.20;99.90
34698;DHT22;61391;50.922;6.928;2023-05-02T00:43:38;13.10;99.90
34698;DHT22;61391;50.922;6.928;2023-05-02T00:46:04;13.00;99.90
34698;DHT22;61391;50.922;6.928;2023-05-02T00:48:30;12.80;99.90
34698;DHT22;61391;50.922;6.928;2023-05-02T00:50:57;12.80;99.90
34698;DHT22;61391;50.922;6.928;2023-05-02T00:53:22;12.90;99.90
34698;DHT22;61391;50.922;6.928;2023-05-02T00:55:48;12.90;99.90
34698;DHT22;61391;50.922;6.928;2023-05-02T00:58:15;12.80;99.90
34698;DHT22;61391;50.922;6.928;2023-05-02T01:00:57;13.00;99.90
34698;DHT22;61391;50.922;6.928;2023-05-02T01:06:35;13.00;99.90
34698;DHT22;61391;50.922;6.928;2023-05-02T01:14:33;12.80;99.90
34698;DHT22;61391;50.922;6.928;2023-05-02T01:20:24;12.90;99.90
34698;DHT22;61391;50.922;6.928;2023-05-02T01:22:51;12.70;99.90
34698;DHT22;61391;50.922;6.928;2023-05-02T01:28:20;12.70;99.90
34698;DHT22;61391;50.922;6.928;2023-05-02T01:30:49;12.90;99.90
34698;DHT22;61391;50.922;6.928;2023-05-02T01:33:17;12.80;99.90
34698;DHT22;61391;50.922;6.928;2023-05-02T01:35:45;12.80;99.90
34698;DHT22;61391;50.922;6.928;2023-05-02T01:38:14;12.70;99.90
34698;DHT22;61391;50.922;6.928;2023-05-02T01:40:44;12.70;99.90
34698;DHT22;61391;50.922;6.928;2023-05-02T01:43:11;12.60;99.90
34698;DHT22;61391;50.922;6.928;2023-05-02T01:45:38;12.40;99.90
34698;DHT22;61391;50.922;6.928;2023-05-02T01:48:06;12.40;99.90
34698;DHT22;61391;50.922;6.928;2023-05-02T01:50:33;12.50;99.90
34698;DHT22;61391;50.922;6.928;2023-05-02T01:53:02;12.50;99.90
34698;DHT22;61391;50.922;6.928;2023-05-02T01:55:29;12.40;99.90
34698;DHT22;61391;50.922;6.928;2023-05-02T01:57:55;12.60;99.90
34698;DHT22;61391;50.922;6.928;2023-05-02T02:00:23;12.40;99.90
34698;DHT22;61391;50.922;6.928;2023-05-02T02:02:50;12.20;99.90
34698;DHT22;61391;50.922;6.928;2023-05-02T02:05:18;12.30;99.90
34698;DHT22;61391;50.922;6.928;2023-05-02T02:07:45;12.30;99.90
34698;DHT22;61391;50.922;6.928;2023-05-02T02:10:11;12.20;99.90
34698;DHT22;61391;50.922;6.928;2023-05-02T02:13:05;12.20;99.90
34698;DHT22;61391;50.922;6.928;2023-05-02T02:15:34;12.40;99.90
34698;DHT22;61391;50.922;6.928;2023-05-02T02:18:06;12.40;99.90
34698;DHT22;61391;50.922;6.928;2023-05-02T02:20:34;12.20;99.90
34698;DHT22;61391;50.922;6.928;2023-05-02T02:23:02;12.20;99.90
34698;DHT22;61391;50.922;6.928;2023-05-02T02:25:30;12.30;99.90
34698;DHT22;61391;50.922;6.928;2023-05-02T02:27:56;12.50;99.90
34698;DHT22;61391;50.922;6.928;2023-05-02T02:30:22;12.50;99.90
34698;DHT22;61391;50.922;6.928;2023-05-02T02:32:47;12.50;99.90
34698;DHT22;61391;50.922;6.928;2023-05-02T02:35:13;12.50;99.90
34698;DHT22;61391;50.922;6.928;2023-05-02T02:37:53;12.40;99.90
34698;DHT22;61391;50.922;6.928;2023-05-02T02:40:29;12.50;99.90
34698;DHT22;61391;50.922;6.928;2023-05-02T02:54:45;12.70;99.90
34698;DHT22;61391;50.922;6.928;2023-05-02T03:00:21;12.70;99.90
34698;DHT22;61391;50.922;6.928;2023-05-02T03:02:54;12.80;99.90
34698;DHT22;61391;50.922;6.928;2023-05-02T03:05:21;12.80;99.90
34698;DHT22;61391;50.922;6.928;2023-05-02T03:07:48;12.90;99.90
34698;DHT22;61391;50.922;6.928;2023-05-02T03:10:15;13.00;99.90
34698;DHT22;61391;50.922;6.928;2023-05-02T03:12:40;12.90;99.90
34698;DHT22;61391;50.922;6.928;2023-05-02T03:17:38;12.90;99.90
34698;DHT22;61391;50.922;6.928;2023-05-02T03:20:03;12.90;99.90
34698;DHT22;61391;50.922;6.928;2023-05-02T03:22:29;13.00;99.90
34698;DHT22;61391;50.922;6.928;2023-05-02T03:24:55;13.10;99.90
34698;DHT22;61391;50.922;6.928;2023-05-02T03:27:20;13.00;99.90
34698;DHT22;61391;50.922;6.928;2023-05-02T03:29:46;13.00;99.90
34698;DHT22;61391;50.922;6.928;2023-05-02T03:32:12;13.00;99.90
34698;DHT22;61391;50.922;6.928;2023-05-02T03:35:03;13.10;99.90
34698;DHT22;61391;50.922;6.928;2023-05-02T03:37:28;13.20;99.90
34698;DHT22;61391;50.922;6.928;2023-05-02T03:39:54;13.20;99.90
34698;DHT22;61391;50.922;6.928;2023-05-02T03:42:20;13.10;99.90
34698;DHT22;61391;50.922;6.928;2023-05-02T03:44:46;13.00;99.90
34698;DHT22;61391;50.922;6.928;2023-05-02T03:47:12;13.00;99.90
34698;DHT22;61391;50.922;6.928;2023-05-02T03:49:38;13.00;99.90
34698;DHT22;61391;50.922;6.928;2023-05-02T03:52:04;13.00;99.90
34698;DHT22;61391;50.922;6.928;2023-05-02T03:54:40;13.10;99.90
34698;DHT22;61391;50.922;6.928;2023-05-02T03:57:07;13.10;99.90
34698;DHT22;61391;50.922;6.928;2023-05-02T03:59:33;13.00;99.90
34698;DHT22;61391;50.922;6.928;2023-05-02T04:01:59;13.00;99.90
34698;DHT22;61391;50.922;6.928;2023-05-02T04:07:56;12.90;99.90
34698;DHT22;61391;50.922;6.928;2023-05-02T04:10:21;12.80;99.90
34698;DHT22;61391;50.922;6.928;2023-05-02T04:13:06;12.80;99.90
34698;DHT22;61391;50.922;6.928;2023-05-02T04:15:31;13.00;99.90
34698;DHT22;61391;50.922;6.928;2023-05-02T04:17:57;13.00;99.90
34698;DHT22;61391;50.922;6.928;2023-05-02T04:20:23;13.10;99.90
34698;DHT22;61391;50.922;6.928;2023-05-02T04:22:49;13.10;99.90
34698;DHT22;61391;50.922;6.928;2023-05-02T04:25:15;13.10;99.90
34698;DHT22;61391;50.922;6.928;2023-05-02T04:27:41;13.10;99.90
34698;DHT22;61391;50.922;6.928;2023-05-02T04:30:07;13.10;99.90
34698;DHT22;61391;50.922;6.928;2023-05-02T04:32:33;13.00;99.90
34698;DHT22;61391;50.922;6.928;2023-05-02T04:34:58;13.00;99.90
34698;DHT22;61391;50.922;6.928;2023-05-02T04:37:54;13.10;99.90
34698;DHT22;61391;50.922;6.928;2023-05-02T04:40:19;13.20;99.90
34698;DHT22;61391;50.922;6.928;2023-05-02T04:42:45;13.20;99.90
34698;DHT22;61391;50.922;6.928;2023-05-02T04:45:11;13.10;99.90
34698;DHT22;61391;50.922;6.928;2023-05-02T04:47:36;13.10;99.90
34698;DHT22;61391;50.922;6.928;2023-05-02T04:50:02;13.20;99.90
34698;DHT22;61391;50.922;6.928;2023-05-02T04:52:29;13.20;99.90
34698;DHT22;61391;50.922;6.928;2023-05-02T04:54:54;13.20;99.90
34698;DHT22;61391;50.922;6.928;2023-05-02T04:57:21;13.20;99.90
34698;DHT22;61391;50.922;6.928;2023-05-02T04:59:46;13.00;99.90
34698;DHT22;61391;50.922;6.928;2023-05-02T05:02:12;13.10;99.90
34698;DHT22;61391;50.922;6.928;2023-05-02T05:04:38;13.00;99.90
34698;DHT22;61391;50.922;6.928;2023-05-02T05:07:03;12.90;99.90
34698;DHT22;61391;50.922;6.928;2023-05-02T05:09:29;13.00;99.90
34698;DHT22;61391;50.922;6.928;2023-05-02T05:11:54;13.20;99.90
34698;DHT22;61391;50.922;6.928;2023-05-02T05:17:42;13.30;99.90
34698;DHT22;61391;50.922;6.928;2023-05-02T05:20:08;13.30;99.90
34698;DHT22;61391;50.922;6.928;2023-05-02T05:22:38;13.20;99.90
34698;DHT22;61391;50.922;6.928;2023-05-02T05:25:04;13.20;99.90
34698;DHT22;61391;50.922;6.928;2023-05-02T05:27:29;13.30;99.90
34698;DHT22;61391;50.922;6.928;2023-05-02T05:29:55;13.40;99.90
34698;DHT22;61391;50.922;6.928;2023-05-02T05:32:21;13.20;99.90
34698;DHT22;61391;50.922;6.928;2023-05-02T05:34:51;13.20;99.90
34698;DHT22;61391;50.922;6.928;2023-05-02T05:37:17;13.40;99.90
34698;DHT22;61391;50.922;6.928;2023-05-02T05:39:43;13.40;99.90
34698;DHT22;61391;50.922;6.928;2023-05-02T05:42:08;13.30;99.90
34698;DHT22;61391;50.922;6.928;2023-05-02T05:44:35;13.30;99.90
34698;DHT22;61391;50.922;6.928;2023-05-02T05:47:01;13.30;99.90
34698;DHT22;61391;50.922;6.928;2023-05-02T05:49:26;13.20;99.90
34698;DHT22;61391;50.922;6.928;2023-05-02T05:51:52;13.00;99.90
34698;DHT22;61391;50.922;6.928;2023-05-02T05:54:17;13.00;99.90
34698;DHT22;61391;50.922;6.928;2023-05-02T05:56:44;13.20;99.90
34698;DHT22;61391;50.922;6.928;2023-05-02T05:59:09;13.20;99.90
34698;DHT22;61391;50.922;6.928;2023-05-02T06:01:35;13.10;99.90
34698;DHT22;61391;50.922;6.928;2023-05-02T06:04:02;13.30;99.90
34698;DHT22;61391;50.922;6.928;2023-05-02T06:06:29;13.40;99.90
34698;DHT22;61391;50.922;6.928;2023-05-02T06:08:56;13.30;99.90
34698;DHT22;61391;50.922;6.928;2023-05-02T06:11:22;13.30;99.90
34698;DHT22;61391;50.922;6.928;2023-05-02T06:13:50;13.30;99.90
34698;DHT22;61391;50.922;6.928;2023-05-02T06:16:15;13.50;99.90
34698;DHT22;61391;50.922;6.928;2023-05-02T06:18:42;13.40;99.90
34698;DHT22;61391;50.922;6.928;2023-05-02T06:21:08;13.50;99.90
34698;DHT22;61391;50.922;6.928;2023-05-02T06:23:34;13.50;99.90
34698;DHT22;61391;50.922;6.928;2023-05-02T06:26:02;13.50;99.90
34698;DHT22;61391;50.922;6.928;2023-05-02T06:28:29;13.30;99.90
34698;DHT22;61391;50.922;6.928;2023-05-02T06:30:59;13.50;99.90
34698;DHT22;61391;50.922;6.928;2023-05-02T06:33:29;13.50;99.90
34698;DHT22;61391;50.922;6.928;2023-05-02T06:35:55;13.60;99.90
34698;DHT22;61391;50.922;6.928;2023-05-02T06:38:21;13.50;99.90
34698;DHT22;61391;50.922;6.928;2023-05-02T06:40:47;13.50;99.90
34698;DHT22;61391;50.922;6.928;2023-05-02T06:43:13;13.50;99.90
34698;DHT22;61391;50.922;6.928;2023-05-02T06:45:39;13.50;99.90
34698;DHT22;61391;50.922;6.928;2023-05-02T06:48:06;13.30;99.90
34698;DHT22;61391;50.922;6.928;2023-05-02T06:50:32;13.30;99.90
34698;DHT22;61391;50.922;6.928;2023-05-02T06:52:57;13.30;99.90
34698;DHT22;61391;50.922;6.928;2023-05-02T06:55:23;13.30;99.90
34698;DHT22;61391;50.922;6.928;2023-05-02T06:57:49;13.20;99.90
34698;DHT22;61391;50.922;6.928;2023-05-02T07:00:16;13.10;99.90
34698;DHT22;61391;50.922;6.928;2023-05-02T07:02:43;13.20;99.90
34698;DHT22;61391;50.922;6.928;2023-05-02T07:05:08;13.20;99.90
34698;DHT22;61391;50.922;6.928;2023-05-02T07:07:34;13.30;99.90
34698;DHT22;61391;50.922;6.928;2023-05-02T07:10:00;13.30;99.90
34698;DHT22;61391;50.922;6.928;2023-05-02T07:12:25;13.50;99.90
34698;DHT22;61391;50.922;6.928;2023-05-02T07:14:51;13.40;99.90
34698;DHT22;61391;50.922;6.928;2023-05-02T07:17:17;13.40;99.90
34698;DHT22;61391;50.922;6.928;2023-05-02T07:19:43;13.40;99.90
34698;DHT22;61391;50.922;6.928;2023-05-02T07:22:08;13.10;99.90
34698;DHT22;61391;50.922;6.928;2023-05-02T07:24:34;13.20;99.90
34698;DHT22;61391;50.922;6.928;2023-05-02T07:27:00;13.30;99.90
34698;DHT22;61391;50.922;6.928;2023-05-02T07:29:27;13.20;99.90
34698;DHT22;61391;50.922;6.928;2023-05-02T07:31:53;13.20;99.90
34698;DHT22;61391;50.922;6.928;2023-05-02T07:34:18;13.30;99.90
34698;DHT22;61391;50.922;6.928;2023-05-02T07:36:44;13.50;99.90
34698;DHT22;61391;50.922;6.928;2023-05-02T07:39:09;13.60;99.90
34698;DHT22;61391;50.922;6.928;2023-05-02T07:41:35;13.60;99.90
34698;DHT22;61391;50.922;6.928;2023-05-02T07:44:01;13.70;99.90
34698;DHT22;61391;50.922;6.928;2023-05-02T07:46:26;13.70;99.90
34698;DHT22;61391;50.922;6.928;2023-05-02T07:48:52;13.80;99.90
34698;DHT22;61391;50.922;6.928;2023-05-02T07:51:18;13.90;99.90
34698;DHT22;61391;50.922;6.928;2023-05-02T07:53:46;13.90;99.90
34698;DHT22;61391;50.922;6.928;2023-05-02T07:56:11;14.00;99.90
34698;DHT22;61391;50.922;6.928;2023-05-02T07:58:37;14.00;99.90
34698;DHT22;61391;50.922;6.928;2023-05-02T08:01:03;13.90;99.90
34698;DHT22;61391;50.922;6.928;2023-05-02T08:03:29;14.00;99.90
34698;DHT22;61391;50.922;6.928;2023-05-02T08:05:56;14.10;99.90
34698;DHT22;61391;50.922;6.928;2023-05-02T08:08:21;14.10;99.90
34698;DHT22;61391;50.922;6.928;2023-05-02T08:10:47;14.00;99.90
34698;DHT22;61391;50.922;6.928;2023-05-02T08:13:14;14.00;99.90
34698;DHT22;61391;50.922;6.928;2023-05-02T08:15:40;13.80;99.90
34698;DHT22;61391;50.922;6.928;2023-05-02T08:18:05;13.80;99.90
34698;DHT22;61391;50.922;6.928;2023-05-02T08:20:31;14.00;99.90
34698;DHT22;61391;50.922;6.928;2023-05-02T08:22:56;14.10;99.90
34698;DHT22;61391;50.922;6.928;2023-05-02T08:25:22;14.40;99.90
34698;DHT22;61391;50.922;6.928;2023-05-02T08:27:48;14.60;99.90
34698;DHT22;61391;50.922;6.928;2023-05-02T08:30:13;14.80;99.90
34698;DHT22;61391;50.922;6.928;2023-05-02T08:32:39;15.00;99.90
34698;DHT22;61391;50.922;6.928;2023-05-02T08:35:05;15.00;99.90
34698;DHT22;61391;50.922;6.928;2023-05-02T08:37:31;15.00;99.90
34698;DHT22;61391;50.922;6.928;2023-05-02T08:39:56;15.10;99.90
34698;DHT22;61391;50.922;6.928;2023-05-02T08:42:22;15.10;99.90
34698;DHT22;61391;50.922;6.928;2023-05-02T08:44:48;15.40;99.90
34698;DHT22;61391;50.922;6.928;2023-05-02T08:47:15;15.60;99.90
34698;DHT22;61391;50.922;6.928;2023-05-02T08:49:42;15.70;99.90
34698;DHT22;61391;50.922;6.928;2023-05-02T08:52:08;15.80;99.90
34698;DHT22;61391;50.922;6.928;2023-05-02T08:54:37;15.70;99.90
34698;DHT22;61391;50.922;6.928;2023-05-02T08:57:04;15.60;99.90
34698;DHT22;61391;50.922;6.928;2023-05-02T08:59:30;15.30;99.90
34698;DHT22;61391;50.922;6.928;2023-05-02T09:02:00;15.30;99.90
34698;DHT22;61391;50.922;6.928;2023-05-02T09:04:30;15.30;99.90
34698;DHT22;61391;50.922;6.928;2023-05-02T09:06:59;15.20;99.90
34698;DHT22;61391;50.922;6.928;2023-05-02T09:09:24;15.20;99.90
34698;DHT22;61391;50.922;6.928;2023-05-02T09:11:51;15.40;99.90
34698;DHT22;61391;50.922;6.928;2023-05-02T09:14:17;15.40;99.90
34698;DHT22;61391;50.922;6.928;2023-05-02T09:16:43;15.50;99.90
34698;DHT22;61391;50.922;6.928;2023-05-02T09:19:09;15.70;99.90
34698;DHT22;61391;50.922;6.928;2023-05-02T09:21:39;15.60;99.90
34698;DHT22;61391;50.922;6.928;2023-05-02T09:24:21;15.50;99.90
34698;DHT22;61391;50.922;6.928;2023-05-02T09:26:57;15.60;99.90
34698;DHT22;61391;50.922;6.928;2023-05-02T09:29:23;15.60;99.90
34698;DHT22;61391;50.922;6.928;2023-05-02T09:31:49;15.50;99.90
34698;DHT22;61391;50.922;6.928;2023-05-02T09:34:16;15.50;99.90
34698;DHT22;61391;50.922;6.928;2023-05-02T09:36:46;15.60;99.90
34698;DHT22;61391;50.922;6.928;2023-05-02T09:39:14;15.80;99.90
34698;DHT22;61391;50.922;6.928;2023-05-02T09:41:50;16.00;99.90
34698;DHT22;61391;50.922;6.928;2023-05-02T09:44:21;15.70;99.90
34698;DHT22;61391;50.922;6.928;2023-05-02T09:46:49;15.90;99.90
34698;DHT22;61391;50.922;6.928;2023-05-02T09:49:15;15.70;99.90
34698;DHT22;61391;50.922;6.928;2023-05-02T09:51:47;16.00;99.90
34698;DHT22;61391;50.922;6.928;2023-05-02T09:54:13;16.20;99.90
34698;DHT22;61391;50.922;6.928;2023-05-02T09:56:55;16.40;99.90
34698;DHT22;61391;50.922;6.928;2023-05-02T09:59:22;16.30;99.90
34698;DHT22;61391;50.922;6.928;2023-05-02T10:02:00;16.10;99.90
34698;DHT22;61391;50.922;6.928;2023-05-02T10:04:27;16.00;99.90
34698;DHT22;61391;50.922;6.928;2023-05-02T10:06:53;16.00;99.90
34698;DHT22;61391;50.922;6.928;2023-05-02T10:09:22;15.80;99.90
34698;DHT22;61391;50.922;6.928;2023-05-02T10:11:51;15.70;99.90
34698;DHT22;61391;50.922;6.928;2023-05-02T10:14:20;15.30;99.90
34698;DHT22;61391;50.922;6.928;2023-05-02T10:17:00;15.20;99.90
34698;DHT22;61391;50.922;6.928;2023-05-02T10:19:29;15.30;99.90
34698;DHT22;61391;50.922;6.928;2023-05-02T10:21:58;15.60;99.90
34698;DHT22;61391;50.922;6.928;2023-05-02T10:24:25;15.70;99.90
34698;DHT22;61391;50.922;6.928;2023-05-02T10:26:52;15.80;99.90
34698;DHT22;61391;50.922;6.928;2023-05-02T10:29:18;15.90;99.90
34698;DHT22;61391;50.922;6.928;2023-05-02T10:31:44;16.00;99.90
34698;DHT22;61391;50.922;6.928;2023-05-02T10:34:11;16.40;99.90
34698;DHT22;61391;50.922;6.928;2023-05-02T10:36:37;16.70;99.90
34698;DHT22;61391;50.922;6.928;2023-05-02T10:39:03;16.60;99.90
34698;DHT22;61391;50.922;6.928;2023-05-02T10:41:31;16.60;99.90
34698;DHT22;61391;50.922;6.928;2023-05-02T10:43:57;16.60;99.90
34698;DHT22;61391;50.922;6.928;2023-05-02T10:46:38;16.30;99.90
34698;DHT22;61391;50.922;6.928;2023-05-02T10:51:34;16.20;99.90
34698;DHT22;61391;50.922;6.928;2023-05-02T10:54:19;16.20;99.90
34698;DHT22;61391;50.922;6.928;2023-05-02T10:57:05;16.10;99.90
34698;DHT22;61391;50.922;6.928;2023-05-02T10:59:39;16.20;99.90
34698;DHT22;61391;50.922;6.928;2023-05-02T11:05:01;16.30;99.90
34698;DHT22;61391;50.922;6.928;2023-05-02T11:07:27;16.30;99.90
34698;DHT22;61391;50.922;6.928;2023-05-02T11:12:46;16.00;99.90
34698;DHT22;61391;50.922;6.928;2023-05-02T11:15:13;16.20;99.90
34698;DHT22;61391;50.922;6.928;2023-05-02T11:18:01;16.10;99.90
34698;DHT22;61391;50.922;6.928;2023-05-02T11:20:27;16.50;99.90
34698;DHT22;61391;50.922;6.928;2023-05-02T11:22:55;16.70;99.90
34698;DHT22;61391;50.922;6.928;2023-05-02T11:25:37;17.00;99.90
34698;DHT22;61391;50.922;6.928;2023-05-02T11:28:05;17.00;99.90
34698;DHT22;61391;50.922;6.928;2023-05-02T11:35:30;16.80;99.90
34698;DHT22;61391;50.922;6.928;2023-05-02T11:38:01;17.30;99.90
34698;DHT22;61391;50.922;6.928;2023-05-02T11:40:28;17.70;99.90
34698;DHT22;61391;50.922;6.928;2023-05-02T11:42:55;18.10;99.90
34698;DHT22;61391;50.922;6.928;2023-05-02T11:45:20;18.60;99.90
34698;DHT22;61391;50.922;6.928;2023-05-02T11:47:48;18.80;99.90
34698;DHT22;61391;50.922;6.928;2023-05-02T11:50:14;18.80;99.90
34698;DHT22;61391;50.922;6.928;2023-05-02T11:52:42;18.80;99.90
34698;DHT22;61391;50.922;6.928;2023-05-02T11:55:11;18.80;99.90
34698;DHT22;61391;50.922;6.928;2023-05-02T11:57:38;18.60;99.90
34698;DHT22;61391;50.922;6.928;2023-05-02T12:00:04;18.60;99.90
34698;DHT22;61391;50.922;6.928;2023-05-02T12:02:44;18.60;99.90
34698;DHT22;61391;50.922;6.928;2023-05-02T12:05:12;18.80;99.90
34698;DHT22;61391;50.922;6.928;2023-05-02T12:07:44;19.00;99.90
34698;DHT22;61391;50.922;6.928;2023-05-02T12:10:11;19.10;99.90
34698;DHT22;61391;50.922;6.928;2023-05-02T12:12:38;19.70;99.90
34698;DHT22;61391;50.922;6.928;2023-05-02T12:15:06;20.10;99.90
34698;DHT22;61391;50.922;6.928;2023-05-02T12:17:35;20.40;99.90
34698;DHT22;61391;50.922;6.928;2023-05-02T12:20:03;20.60;99.90
34698;DHT22;61391;50.922;6.928;2023-05-02T12:22:29;20.60;99.70
34698;DHT22;61391;50.922;6.928;2023-05-02T12:24:55;20.70;99.90
34698;DHT22;61391;50.922;6.928;2023-05-02T12:27:21;20.60;99.10
34698;DHT22;61391;50.922;6.928;2023-05-02T12:29:47;20.80;99.50
34698;DHT22;61391;50.922;6.928;2023-05-02T12:32:14;20.70;98.60
34698;DHT22;61391;50.922;6.928;2023-05-02T12:34:51;20.20;99.60
34698;DHT22;61391;50.922;6.928;2023-05-02T12:37:24;19.30;99.90
34698;DHT22;61391;50.922;6.928;2023-05-02T12:39:50;19.00;99.90
34698;DHT22;61391;50.922;6.928;2023-05-02T12:42:19;18.60;99.90
34698;DHT22;61391;50.922;6.928;2023-05-02T12:44:46;18.60;99.90
34698;DHT22;61391;50.922;6.928;2023-05-02T12:47:14;18.50;99.90
34698;DHT22;61391;50.922;6.928;2023-05-02T12:49:53;18.60;99.90
34698;DHT22;61391;50.922;6.928;2023-05-02T12:53:07;18.80;99.90
34698;DHT22;61391;50.922;6.928;2023-05-02T12:55:21;19.00;99.90
34698;DHT22;61391;50.922;6.928;2023-05-02T12:58:02;19.20;99.90
34698;DHT22;61391;50.922;6.928;2023-05-02T13:00:29;19.30;99.90
34698;DHT22;61391;50.922;6.928;2023-05-02T13:02:55;19.40;98.60
34698;DHT22;61391;50.922;6.928;2023-05-02T13:05:20;19.50;98.60
34698;DHT22;61391;50.922;6.928;2023-05-02T13:07:46;19.50;97.30
34698;DHT22;61391;50.922;6.928;2023-05-02T13:10:13;19.40;97.80
34698;DHT22;61391;50.922;6.928;2023-05-02T13:12:42;19.50;97.30
34698;DHT22;61391;50.922;6.928;2023-05-02T13:15:08;19.30;97.80
34698;DHT22;61391;50.922;6.928;2023-05-02T13:17:34;18.90;98.70
34698;DHT22;61391;50.922;6.928;2023-05-02T13:20:00;18.70;98.50
34698;DHT22;61391;50.922;6.928;2023-05-02T13:22:26;19.00;97.90
34698;DHT22;61391;50.922;6.928;2023-05-02T13:24:52;19.10;97.50
34698;DHT22;61391;50.922;6.928;2023-05-02T13:27:17;19.30;97.30
34698;DHT22;61391;50.922;6.928;2023-05-02T13:29:44;19.20;97.90
34698;DHT22;61391;50.922;6.928;2023-05-02T13:32:09;19.30;97.50
34698;DHT22;61391;50.922;6.928;2023-05-02T13:34:36;19.20;95.50
34698;DHT22;61391;50.922;6.928;2023-05-02T13:37:02;19.30;94.60
34698;DHT22;61391;50.922;6.928;2023-05-02T13:39:27;19.10;95.20
34698;DHT22;61391;50.922;6.928;2023-05-02T13:41:53;18.80;95.50
34698;DHT22;61391;50.922;6.928;2023-05-02T13:44:18;18.90;96.80
34698;DHT22;61391;50.922;6.928;2023-05-02T13:46:44;18.90;96.40
34698;DHT22;61391;50.922;6.928;2023-05-02T13:49:10;18.60;96.90
34698;DHT22;61391;50.922;6.928;2023-05-02T13:51:38;18.70;97.50
34698;DHT22;61391;50.922;6.928;2023-05-02T13:54:03;18.90;95.90
34698;DHT22;61391;50.922;6.928;2023-05-02T13:56:29;18.80;95.00
34698;DHT22;61391;50.922;6.928;2023-05-02T13:58:55;18.80;95.10
34698;DHT22;61391;50.922;6.928;2023-05-02T14:01:20;18.70;95.50
34698;DHT22;61391;50.922;6.928;2023-05-02T14:03:46;18.70;95.70
34698;DHT22;61391;50.922;6.928;2023-05-02T14:06:12;18.60;96.50
34698;DHT22;61391;50.922;6.928;2023-05-02T14:08:37;18.60;96.00
34698;DHT22;61391;50.922;6.928;2023-05-02T14:11:03;18.40;95.90
34698;DHT22;61391;50.922;6.928;2023-05-02T14:13:28;18.10;95.90
34698;DHT22;61391;50.922;6.928;2023-05-02T14:15:54;17.80;97.20
34698;DHT22;61391;50.922;6.928;2023-05-02T14:18:20;17.90;96.30
34698;DHT22;61391;50.922;6.928;2023-05-02T14:20:45;17.80;96.90
34698;DHT22;61391;50.922;6.928;2023-05-02T14:23:11;17.70;96.10
34698;DHT22;61391;50.922;6.928;2023-05-02T14:25:37;17.70;95.80
34698;DHT22;61391;50.922;6.928;2023-05-02T14:28:03;17.40;95.90
34698;DHT22;61391;50.922;6.928;2023-05-02T14:30:29;17.20;96.30
34698;DHT22;61391;50.922;6.928;2023-05-02T14:32:55;17.20;96.30
34698;DHT22;61391;50.922;6.928;2023-05-02T14:35:30;17.10;96.10
34698;DHT22;61391;50.922;6.928;2023-05-02T14:37:56;17.20;96.30
34698;DHT22;61391;50.922;6.928;2023-05-02T14:40:21;17.10;95.80
34698;DHT22;61391;50.922;6.928;2023-05-02T14:42:47;17.20;96.30
34698;DHT22;61391;50.922;6.928;2023-05-02T14:45:13;17.50;96.30
34698;DHT22;61391;50.922;6.928;2023-05-02T14:47:38;17.40;95.80
34698;DHT22;61391;50.922;6.928;2023-05-02T14:50:04;17.60;95.40
34698;DHT22;61391;50.922;6.928;2023-05-02T14:52:30;17.50;95.50
34698;DHT22;61391;50.922;6.928;2023-05-02T14:55:00;17.50;94.80
34698;DHT22;61391;50.922;6.928;2023-05-02T14:57:25;17.50;95.40
34698;DHT22;61391;50.922;6.928;2023-05-02T14:59:51;17.40;95.60
34698;DHT22;61391;50.922;6.928;2023-05-02T15:02:17;17.20;94.90
34698;DHT22;61391;50.922;6.928;2023-05-02T15:04:43;17.10;96.00
34698;DHT22;61391;50.922;6.928;2023-05-02T15:07:08;17.00;95.80
34698;DHT22;61391;50.922;6.928;2023-05-02T15:09:34;17.10;95.70
34698;DHT22;61391;50.922;6.928;2023-05-02T15:12:00;17.10;95.70
34698;DHT22;61391;50.922;6.928;2023-05-02T15:14:27;17.20;95.70
34698;DHT22;61391;50.922;6.928;2023-05-02T15:16:53;17.10;95.50
34698;DHT22;61391;50.922;6.928;2023-05-02T15:19:19;17.00;95.60
34698;DHT22;61391;50.922;6.928;2023-05-02T15:21:47;16.50;96.80
34698;DHT22;61391;50.922;6.928;2023-05-02T15:24:14;16.30;97.50
34698;DHT22;61391;50.922;6.928;2023-05-02T15:26:40;16.20;98.00
34698;DHT22;61391;50.922;6.928;2023-05-02T15:29:06;16.30;97.30
34698;DHT22;61391;50.922;6.928;2023-05-02T15:31:31;16.30;97.60
34698;DHT22;61391;50.922;6.928;2023-05-02T15:33:58;16.50;96.90
34698;DHT22;61391;50.922;6.928;2023-05-02T15:36:28;16.50;96.40
34698;DHT22;61391;50.922;6.928;2023-05-02T15:38:55;16.60;95.90
34698;DHT22;61391;50.922;6.928;2023-05-02T15:41:20;16.60;96.30
34698;DHT22;61391;50.922;6.928;2023-05-02T15:43:46;16.70;95.70
34698;DHT22;61391;50.922;6.928;2023-05-02T15:46:11;16.70;94.80
34698;DHT22;61391;50.922;6.928;2023-05-02T15:48:37;16.70;95.50
34698;DHT22;61391;50.922;6.928;2023-05-02T15:51:03;16.70;95.30
34698;DHT22;61391;50.922;6.928;2023-05-02T15:53:33;16.60;94.70
34698;DHT22;61391;50.922;6.928;2023-05-02T15:56:12;16.20;95.80
34698;DHT22;61391;50.922;6.928;2023-05-02T15:58:38;16.10;95.50
34698;DHT22;61391;50.922;6.928;2023-05-02T16:01:04;16.20;95.60
34698;DHT22;61391;50.922;6.928;2023-05-02T16:03:30;16.30;95.70
34698;DHT22;61391;50.922;6.928;2023-05-02T16:05:57;16.40;95.20
34698;DHT22;61391;50.922;6.928;2023-05-02T16:08:26;16.50;95.20
34698;DHT22;61391;50.922;6.928;2023-05-02T16:10:52;16.60;94.90
34698;DHT22;61391;50.922;6.928;2023-05-02T16:13:18;16.50;95.30
34698;DHT22;61391;50.922;6.928;2023-05-02T16:15:43;16.50;94.40
34698;DHT22;61391;50.922;6.928;2023-05-02T16:18:09;16.40;94.40
34698;DHT22;61391;50.922;6.928;2023-05-02T16:20:35;16.20;94.50
34698;DHT22;61391;50.922;6.928;2023-05-02T16:23:01;15.90;96.30
34698;DHT22;61391;50.922;6.928;2023-05-02T16:25:28;15.80;97.30